TimeIST,TemperatureF,Dew PointF,Humidity,Sea Level PressureIn,VisibilityMPH,Wind Direction,Wind SpeedMPH,Gust SpeedMPH,PrecipitationIn,Events,Conditions,WindDirDegrees,DateUTC
1:00 AM,43,41,91,29.48,,SW,8.9,,,,,220,2012-10-03 00:00:00
6:00 AM,44.6,42.8,93,29.42,6.2,SW,10.4,-,N/A,,Mostly Cloudy,230,2012-10-03 05:00:00
6:30 AM,44.6,42.8,93,29.44,6.2,West,17.3,-,N/A,Rain,Light Rain Showers,260,2012-10-03 05:30:00
7:00 AM,44,43,96,29.47,9,WSW,13.4,,,Rain,Light Rain Showers,250,2012-10-03 06:00:00
7:00 AM,44.6,42.8,93,29.44,6.2,WSW,13.8,-,N/A,Rain,Light Rain Showers,250,2012-10-03 06:00:00
7:30 AM,44.6,44.6,100,29.44,6.2,WSW,12.7,-,N/A,Rain,Light Rain Showers,240,2012-10-03 06:30:00
8:00 AM,44.6,42.8,93,29.44,4.3,WSW,12.7,-,N/A,Rain,Light Rain Showers,240,2012-10-03 07:00:00
8:30 AM,44.6,44.6,100,29.44,6.2,WSW,12.7,-,N/A,Rain,Light Rain Showers,250,2012-10-03 07:30:00
9:00 AM,44.6,44.6,100,29.44,6.2,WSW,8.1,-,N/A,Rain,Light Rain Showers,240,2012-10-03 08:00:00
9:30 AM,44.6,44.6,100,29.47,6.2,WSW,9.2,-,N/A,,Mostly Cloudy,250,2012-10-03 08:30:00
10:00 AM,46.4,44.6,93,29.47,6.2,West,11.5,-,N/A,,Mostly Cloudy,260,2012-10-03 09:00:00
10:30 AM,46.4,44.6,93,29.47,6.2,West,11.5,-,N/A,,Mostly Cloudy,260,2012-10-03 09:30:00
11:00 AM,46.4,44.6,93,29.50,6.2,West,11.5,-,N/A,,Mostly Cloudy,260,2012-10-03 10:00:00
11:30 AM,46.4,44.6,93,29.50,6.2,WSW,9.2,-,N/A,,Mostly Cloudy,250,2012-10-03 10:30:00
12:00 PM,48.2,46.4,93,29.50,6.2,WSW,10.4,-,N/A,,Mostly Cloudy,250,2012-10-03 11:00:00
12:30 PM,50.0,46.4,87,29.50,6.2,WSW,12.7,-,N/A,,Mostly Cloudy,250,2012-10-03 11:30:00
1:00 PM,49,46,85,29.53,22,WSW,13.4,,,,Mostly Cloudy,250,2012-10-03 12:00:00
1:00 PM,48.2,46.4,93,29.50,6.2,WSW,12.7,-,N/A,,Mostly Cloudy,250,2012-10-03 12:00:00
1:30 PM,50.0,46.4,87,29.50,6.2,WSW,11.5,-,N/A,,Scattered Clouds,240,2012-10-03 12:30:00
2:00 PM,50.0,44.6,82,29.50,6.2,WSW,12.7,-,N/A,,Mostly Cloudy,250,2012-10-03 13:00:00
2:30 PM,51.8,46.4,82,29.50,6.2,WSW,12.7,-,N/A,,Mostly Cloudy,250,2012-10-03 13:30:00
3:00 PM,51.8,46.4,82,29.50,6.2,WSW,12.7,-,N/A,,Mostly Cloudy,250,2012-10-03 14:00:00
3:30 PM,51.8,46.4,82,29.50,6.2,WSW,11.5,-,N/A,,Mostly Cloudy,240,2012-10-03 14:30:00
4:00 PM,51.8,46.4,82,29.50,6.2,WSW,12.7,-,N/A,,Mostly Cloudy,240,2012-10-03 15:00:00
4:30 PM,50.0,42.8,76,29.53,2.5,NW,12.7,-,N/A,,Mostly Cloudy,310,2012-10-03 15:30:00
5:00 PM,46.4,44.6,93,29.53,6.2,NW,5.8,-,N/A,Rain,Light Rain Showers,320,2012-10-03 16:00:00
5:30 PM,46.4,44.6,93,29.53,6.2,WNW,3.5,-,N/A,,Mostly Cloudy,290,2012-10-03 16:30:00
6:00 PM,48.2,44.6,87,29.53,6.2,West,5.8,-,N/A,,Mostly Cloudy,280,2012-10-03 17:00:00
6:30 PM,46.4,44.6,93,29.53,6.2,West,3.5,-,N/A,,Scattered Clouds,260,2012-10-03 17:30:00
7:00 PM,46,45,93,29.57,47,WSW,4.5,,,,Partly Cloudy,240,2012-10-03 18:00:00
7:00 PM,46.4,44.6,93,29.53,6.2,WSW,3.5,-,N/A,,Scattered Clouds,240,2012-10-03 18:00:00
7:30 PM,46.4,44.6,93,29.56,6.2,WSW,3.5,-,N/A,Rain,Light Rain Showers,250,2012-10-03 18:30:00
8:00 PM,44.6,44.6,100,29.56,6.2,WSW,4.6,-,N/A,,Scattered Clouds,240,2012-10-03 19:00:00